Time;durP1;ratioP1;P1;durP2;ratioP2;P2;SDS_P1;SDS_P2;PMS_P1;PMS_P2;Temp;Humidity;BMP_temperature;BMP_pressure;BME280_temperature;BME280_humidity;BME280_pressure;Samples;Min_cycle;Max_cycle;Signal;HPM_P1;HPM_P2
2021/08/10 00:05:23;;;;;;;3.83;1.90;;;17.30;99.90;;;;;;6721575;88;20288;-76
2021/08/10 00:15:23;;;;;;;5.68;1.70;;;17.30;99.90;;;;;;6725376;88;20659;-76
2021/08/10 00:25:24;;;;;;;3.08;1.40;;;17.20;99.90;;;;;;6723175;88;20197;-76
2021/08/10 00:35:25;;;;;;;3.60;1.60;;;17.30;99.90;;;;;;6725587;88;20580;-76
2021/08/10 00:45:25;;;;;;;3.40;1.30;;;17.00;99.90;;;;;;6722228;88;20276;-75
2021/08/10 00:55:26;;;;;;;7.97;1.60;;;16.90;99.90;;;;;;6725627;88;20234;-76
2021/08/10 01:05:30;;;;;;;6.53;1.60;;;16.80;99.90;;;;;;6729228;88;20260;-75
2021/08/10 01:15:41;;;;;;;4.07;1.30;;;16.60;99.90;;;;;;6723596;88;20213;-75
2021/08/10 01:25:57;;;;;;;5.40;1.50;;;16.50;99.90;;;;;;6724107;88;20417;-75
2021/08/10 01:35:58;;;;;;;3.30;1.20;;;16.50;99.90;;;;;;6722711;88;20189;-75
2021/08/10 01:45:59;;;;;;;4.07;1.30;;;16.70;99.90;;;;;;6723773;88;20295;-75
2021/08/10 01:56:00;;;;;;;5.78;1.55;;;16.80;99.90;;;;;;6725212;88;20378;-75
2021/08/10 02:06:02;;;;;;;6.28;1.80;;;16.60;99.90;;;;;;6721127;88;20190;-76
2021/08/10 02:16:05;;;;;;;3.30;1.62;;;16.30;99.90;;;;;;6724860;88;20269;-75
2021/08/10 02:26:07;;;;;;;7.50;1.70;;;16.20;99.90;;;;;;6725700;88;20284;-75
2021/08/10 02:36:08;;;;;;;5.57;1.80;;;16.20;99.90;;;;;;6721855;88;20652;-76
2021/08/10 02:46:09;;;;;;;4.28;1.70;;;15.90;99.90;;;;;;6724128;88;20385;-75
2021/08/10 02:56:15;;;;;;;6.17;1.90;;;16.10;99.90;;;;;;6741939;88;20189;-75
2021/08/10 03:06:17;;;;;;;4.57;1.62;;;16.10;99.90;;;;;;6729366;88;20648;-75
2021/08/10 03:16:18;;;;;;;4.62;1.30;;;16.10;99.90;;;;;;6747365;88;20314;-74
2021/08/10 03:26:22;;;;;;;6.00;1.50;;;16.20;99.90;;;;;;6728024;88;20197;-77
2021/08/10 03:36:25;;;;;;;3.65;1.52;;;16.30;99.90;;;;;;6714938;88;20206;-78
2021/08/10 03:46:30;;;;;;;8.43;2.12;;;16.20;99.90;;;;;;6714257;88;20177;-77
2021/08/10 03:56:32;;;;;;;5.55;2.08;;;16.20;99.90;;;;;;6713374;88;20255;-77
2021/08/10 04:06:34;;;;;;;5.03;2.12;;;15.50;99.90;;;;;;6714914;88;20719;-76
2021/08/10 04:16:47;;;;;;;6.50;2.25;;;15.40;99.90;;;;;;6713133;88;20196;-77
2021/08/10 04:26:47;;;;;;;5.50;2.15;;;15.30;99.90;;;;;;6716110;88;20232;-76
2021/08/10 04:36:48;;;;;;;8.45;2.95;;;15.40;99.90;;;;;;6715555;88;20249;-77
2021/08/10 04:46:49;;;;;;;7.78;2.55;;;15.50;99.90;;;;;;6715442;88;20204;-75
2021/08/10 04:56:50;;;;;;;6.70;3.10;;;15.40;99.90;;;;;;6716372;88;20231;-75
2021/08/10 05:06:51;;;;;;;6.10;2.83;;;15.20;99.90;;;;;;6715787;88;20769;-75
2021/08/10 05:16:52;;;;;;;5.93;2.92;;;15.20;99.90;;;;;;6715348;88;20337;-76
2021/08/10 05:26:53;;;;;;;9.20;3.25;;;15.10;99.90;;;;;;6715060;88;20635;-75
2021/08/10 05:36:53;;;;;;;7.07;3.40;;;15.10;99.90;;;;;;6716072;88;20260;-76
2021/08/10 05:46:55;;;;;;;9.32;3.40;;;15.20;99.90;;;;;;6716770;88;20919;-76
2021/08/10 05:56:55;;;;;;;12.27;3.30;;;15.30;99.90;;;;;;6726024;88;20265;-76
2021/08/10 06:06:57;;;;;;;6.07;2.85;;;15.60;99.90;;;;;;6718021;88;20197;-77
2021/08/10 06:16:57;;;;;;;5.70;2.60;;;15.70;99.90;;;;;;6717505;88;20225;-75
2021/08/10 06:26:58;;;;;;;9.45;2.80;;;15.90;99.90;;;;;;6716984;88;20261;-77
2021/08/10 06:36:59;;;;;;;7.68;2.90;;;16.20;99.90;;;;;;6715944;88;20215;-76
2021/08/10 06:47:00;;;;;;;7.97;2.97;;;16.40;99.90;;;;;;6727445;88;20192;-77
2021/08/10 06:57:05;;;;;;;6.72;2.37;;;16.60;99.90;;;;;;6736284;88;20188;-78
2021/08/10 07:07:06;;;;;;;5.57;2.25;;;16.70;99.90;;;;;;6715968;88;20739;-77
2021/08/10 07:17:06;;;;;;;5.03;2.00;;;17.00;99.90;;;;;;6715635;88;20328;-77
2021/08/10 07:27:07;;;;;;;5.82;2.10;;;16.80;99.90;;;;;;6715409;88;20310;-77
2021/08/10 07:37:08;;;;;;;5.05;2.30;;;17.10;99.90;;;;;;6714197;88;20355;-78
2021/08/10 07:47:08;;;;;;;6.78;2.30;;;17.80;99.90;;;;;;6713716;88;20274;-76
2021/08/10 07:57:09;;;;;;;7.62;2.50;;;18.70;99.90;;;;;;6726641;88;20196;-76
2021/08/10 08:07:09;;;;;;;5.15;1.70;;;19.60;99.90;;;;;;6731137;88;20192;-76
2021/08/10 08:17:11;;;;;;;5.22;1.80;;;20.80;99.90;;;;;;6730666;88;20192;-77
2021/08/10 08:27:12;;;;;;;4.70;1.65;;;20.50;99.90;;;;;;6733590;88;20219;-77
2021/08/10 08:37:13;;;;;;;5.05;1.87;;;21.10;99.90;;;;;;6737169;88;20218;-77
2021/08/10 08:47:18;;;;;;;4.12;1.90;;;21.40;99.90;;;;;;6734387;88;20209;-76
2021/08/10 08:57:19;;;;;;;4.35;1.87;;;22.50;99.90;;;;;;6728276;88;20205;-77
2021/08/10 09:07:19;;;;;;;3.75;1.80;;;22.10;99.90;;;;;;6725504;88;20641;-78
2021/08/10 09:17:23;;;;;;;3.93;1.70;;;23.10;99.90;;;;;;6715317;88;20276;-77
2021/08/10 09:27:39;;;;;;;3.40;1.60;;;22.70;99.90;;;;;;6733057;88;20184;-76
2021/08/10 09:37:40;;;;;;;3.35;1.92;;;21.80;99.90;;;;;;6726475;88;20210;-76
2021/08/10 09:47:41;;;;;;;6.93;1.90;;;22.00;99.90;;;;;;6732070;88;20177;-76
2021/08/10 09:57:58;;;;;;;3.50;2.10;;;22.20;99.90;;;;;;6725175;88;20181;-76
2021/08/10 10:08:24;;;;;;;5.50;2.08;;;21.20;99.90;;;;;;6726919;88;20543;-76
2021/08/10 10:18:26;;;;;;;3.12;1.58;;;22.00;99.90;;;;;;6726172;88;20568;-76
2021/08/10 10:28:29;;;;;;;3.60;1.60;;;22.40;99.90;;;;;;6728777;88;20255;-76
2021/08/10 10:38:32;;;;;;;6.28;2.15;;;22.80;99.90;;;;;;6726966;88;20184;-75
2021/08/10 10:48:32;;;;;;;6.43;2.00;;;22.20;99.90;;;;;;6725305;88;20206;-76
2021/08/10 10:58:34;;;;;;;3.12;1.83;;;22.90;99.90;;;;;;6728627;88;20718;-76
2021/08/10 11:08:40;;;;;;;4.60;1.77;;;25.10;99.90;;;;;;6728336;88;20207;-77
2021/08/10 11:18:41;;;;;;;3.50;1.65;;;27.70;99.90;;;;;;6730184;88;20644;-76
2021/08/10 11:28:46;;;;;;;4.22;1.90;;;28.50;99.90;;;;;;6722684;88;20248;-76
2021/08/10 11:38:52;;;;;;;3.83;1.73;;;29.20;99.90;;;;;;6723940;88;20652;-76
2021/08/10 11:49:04;;;;;;;4.00;2.08;;;27.70;99.90;;;;;;6734438;88;20192;-76
2021/08/10 11:59:09;;;;;;;5.03;2.00;;;28.30;99.90;;;;;;6734576;88;20197;-76
2021/08/10 12:09:15;;;;;;;5.53;2.22;;;28.30;99.90;;;;;;6727915;88;20319;-76
2021/08/10 12:19:15;;;;;;;4.60;2.10;;;27.20;99.90;;;;;;6727812;88;20193;-75
2021/08/10 12:29:16;;;;;;;5.37;2.17;;;27.70;99.90;;;;;;6724367;88;20670;-76
2021/08/10 12:39:17;;;;;;;3.42;1.85;;;28.20;99.90;;;;;;6730976;88;20181;-77
2021/08/10 12:49:18;;;;;;;6.13;2.30;;;29.70;99.90;;;;;;6728002;88;20280;-76
2021/08/10 12:59:20;;;;;;;6.60;2.35;;;29.20;99.90;;;;;;6723573;88;20237;-76
2021/08/10 13:09:20;;;;;;;6.37;2.60;;;27.90;99.90;;;;;;6728254;88;20710;-75
2021/08/10 13:19:21;;;;;;;3.78;2.25;;;27.40;99.90;;;;;;6726384;88;20279;-76
2021/08/10 13:29:37;;;;;;;4.28;2.20;;;27.40;99.90;;;;;;6728925;88;20200;-77
2021/08/10 13:39:38;;;;;;;4.45;2.25;;;27.50;99.90;;;;;;6720702;88;20209;-77
2021/08/10 13:49:39;;;;;;;6.03;2.50;;;27.10;99.90;;;;;;6726028;88;20300;-77
2021/08/10 13:59:40;;;;;;;5.22;2.45;;;26.30;99.90;;;;;;6715790;88;20235;-77
2021/08/10 14:09:40;;;;;;;4.95;2.50;;;26.20;99.90;;;;;;6745727;88;20209;-78
2021/08/10 14:19:41;;;;;;;6.12;2.65;;;25.70;99.90;;;;;;6724354;88;20236;-76
2021/08/10 14:29:42;;;;;;;3.40;2.30;;;25.50;99.90;;;;;;6735426;88;20208;-77
2021/08/10 14:39:42;;;;;;;6.75;2.75;;;25.60;99.90;;;;;;6727520;88;20621;-77
2021/08/10 14:49:43;;;;;;;4.60;2.60;;;25.90;99.90;;;;;;6729879;88;20205;-77
2021/08/10 14:59:43;;;;;;;5.60;2.60;;;25.80;99.90;;;;;;6734173;88;20176;-77
2021/08/10 15:09:44;;;;;;;4.62;2.50;;;25.40;99.90;;;;;;6718356;88;20665;-76
2021/08/10 15:19:44;;;;;;;6.00;2.67;;;24.30;99.90;;;;;;6717002;88;20571;-79
2021/08/10 15:29:45;;;;;;;7.07;3.10;;;21.10;99.90;;;;;;6714959;88;20181;-74
2021/08/10 15:39:46;;;;;;;7.07;3.43;;;20.10;99.90;;;;;;6715355;88;20170;-74
2021/08/10 15:49:47;;;;;;;7.47;3.57;;;19.80;99.90;;;;;;6716820;88;20499;-74
2021/08/10 15:59:47;;;;;;;6.60;3.65;;;20.40;99.90;;;;;;6721606;88;20188;-74
2021/08/10 16:09:48;;;;;;;5.70;3.05;;;21.10;99.90;;;;;;6716019;88;20707;-75
2021/08/10 16:19:49;;;;;;;6.32;3.42;;;21.80;99.90;;;;;;6715840;88;20232;-74
2021/08/10 16:29:49;;;;;;;5.47;3.10;;;22.80;99.90;;;;;;6713214;88;20202;-74
2021/08/10 16:39:50;;;;;;;5.47;3.12;;;23.50;99.90;;;;;;6713775;88;20195;-74
2021/08/10 16:49:51;;;;;;;6.57;3.15;;;23.60;99.90;;;;;;6713467;88;20212;-73
2021/08/10 16:59:51;;;;;;;5.30;2.60;;;23.10;99.90;;;;;;6716108;88;20185;-73
2021/08/10 17:09:52;;;;;;;6.83;3.47;;;22.30;99.90;;;;;;6717625;88;20216;-74
2021/08/10 17:19:52;;;;;;;4.90;2.90;;;22.00;99.90;;;;;;6723853;88;20209;-74
2021/08/10 17:29:53;;;;;;;4.93;3.17;;;21.40;99.90;;;;;;6722891;88;20181;-75
2021/08/10 17:39:53;;;;;;;4.87;2.97;;;21.00;99.90;;;;;;6726904;88;20196;-74
2021/08/10 17:49:54;;;;;;;6.70;3.50;;;20.80;99.90;;;;;;6725225;88;20311;-74
2021/08/10 17:59:54;;;;;;;7.85;3.87;;;20.60;99.90;;;;;;6735545;88;20270;-75
2021/08/10 18:09:55;;;;;;;10.82;5.22;;;19.90;99.90;;;;;;6735360;88;20200;-76
2021/08/10 18:19:56;;;;;;;10.50;4.93;;;19.20;99.90;;;;;;6728277;88;20205;-76
2021/08/10 18:29:56;;;;;;;9.02;6.00;;;18.80;99.90;;;;;;6726970;88;20215;-76
2021/08/10 18:39:57;;;;;;;9.18;5.70;;;18.80;99.90;;;;;;6730950;88;20330;-76
2021/08/10 18:49:57;;;;;;;9.37;5.40;;;19.00;99.90;;;;;;6724031;88;20215;-76
2021/08/10 18:59:58;;;;;;;9.88;5.45;;;18.90;99.90;;;;;;6723532;88;20199;-76
2021/08/10 19:09:58;;;;;;;9.50;5.60;;;18.80;99.90;;;;;;6720798;88;20256;-75
2021/08/10 19:19:59;;;;;;;9.27;5.95;;;18.70;99.90;;;;;;6722068;88;20699;-74
2021/08/10 19:30:00;;;;;;;9.18;5.57;;;18.60;99.90;;;;;;6726959;88;20201;-74
2021/08/10 19:40:00;;;;;;;10.85;6.87;;;18.70;99.90;;;;;;6743217;88;20206;-73
2021/08/10 19:50:02;;;;;;;9.18;6.10;;;19.00;99.90;;;;;;6739791;88;20267;-73
2021/08/10 20:00:04;;;;;;;11.20;6.60;;;19.00;99.90;;;;;;6744160;88;20304;-74
2021/08/10 20:10:05;;;;;;;9.73;6.30;;;18.70;99.90;;;;;;6729414;88;20264;-75
2021/08/10 20:20:08;;;;;;;10.30;6.90;;;18.60;99.90;;;;;;6726654;88;20260;-75
2021/08/10 20:30:09;;;;;;;12.30;6.45;;;18.60;99.90;;;;;;6732474;88;20273;-75
2021/08/10 20:40:11;;;;;;;9.18;6.55;;;18.80;99.90;;;;;;6731454;88;20252;-74
2021/08/10 20:50:11;;;;;;;11.02;7.37;;;18.50;99.90;;;;;;6728529;88;20211;-74
2021/08/10 21:00:12;;;;;;;10.95;7.12;;;18.30;99.90;;;;;;6733079;88;20226;-74
2021/08/10 21:10:13;;;;;;;11.82;7.97;;;18.20;99.90;;;;;;6716918;88;20933;-74
2021/08/10 21:20:14;;;;;;;12.97;7.90;;;18.30;99.90;;;;;;6717795;88;20268;-74
2021/08/10 21:30:15;;;;;;;11.18;7.25;;;18.20;99.90;;;;;;6719913;88;20400;-74
2021/08/10 21:40:15;;;;;;;9.17;6.23;;;17.90;99.90;;;;;;6726929;88;20165;-74
2021/08/10 21:50:16;;;;;;;12.80;7.70;;;18.00;99.90;;;;;;6724823;77;20223;-77
2021/08/10 22:00:16;;;;;;;9.73;6.22;;;18.00;99.90;;;;;;6719354;88;20253;-77
2021/08/10 22:10:17;;;;;;;8.80;5.62;;;17.70;99.90;;;;;;6730402;88;20713;-76
2021/08/10 22:20:18;;;;;;;10.60;6.68;;;17.70;99.90;;;;;;6733748;88;20236;-77
2021/08/10 22:30:18;;;;;;;12.40;7.35;;;17.90;99.90;;;;;;6733137;88;20215;-77
2021/08/10 22:40:19;;;;;;;10.45;6.72;;;17.60;99.90;;;;;;6736923;88;20766;-77
2021/08/10 22:50:20;;;;;;;12.70;6.63;;;17.50;99.90;;;;;;6736256;88;20188;-77
2021/08/10 23:00:22;;;;;;;10.77;6.32;;;17.40;99.90;;;;;;6734399;88;20224;-77
2021/08/10 23:10:23;;;;;;;10.38;7.07;;;17.50;99.90;;;;;;6738379;88;20192;-76
2021/08/10 23:20:24;;;;;;;8.65;6.40;;;17.30;99.90;;;;;;6739857;88;20194;-77
2021/08/10 23:30:24;;;;;;;9.50;6.45;;;17.20;99.90;;;;;;6733583;88;20192;-77
2021/08/10 23:40:25;;;;;;;9.10;6.20;;;17.20;99.90;;;;;;6736446;88;20189;-77
2021/08/10 23:50:25;;;;;;;13.23;5.80;;;17.20;99.90;;;;;;6734638;88;20319;-78
